sensor_id;sensor_type;location;lat;lon;timestamp;P1;durP1;ratioP1;P2;durP2;ratioP2
16426;SDS011;8322;-33.900;151.170;2023-06-22T00:00:44;11.90;;;5.95;;
16426;SDS011;8322;-33.900;151.170;2023-06-22T00:03:13;12.50;;;5.35;;
16426;SDS011;8322;-33.900;151.170;2023-06-22T00:05:43;10.50;;;5.40;;
16426;SDS011;8322;-33.900;151.170;2023-06-22T00:08:12;11.52;;;5.25;;
16426;SDS011;8322;-33.900;151.170;2023-06-22T00:10:42;28.23;;;9.90;;
16426;SDS011;8322;-33.900;151.170;2023-06-22T00:13:14;10.68;;;6.00;;
16426;SDS011;8322;-33.900;151.170;2023-06-22T00:15:43;9.10;;;5.07;;
16426;SDS011;8322;-33.900;151.170;2023-06-22T00:18:13;9.68;;;4.75;;
16426;SDS011;8322;-33.900;151.170;2023-06-22T00:20:42;8.18;;;4.32;;
16426;SDS011;8322;-33.900;151.170;2023-06-22T00:23:13;8.52;;;4.82;;
16426;SDS011;8322;-33.900;151.170;2023-06-22T00:25:43;9.93;;;5.10;;
16426;SDS011;8322;-33.900;151.170;2023-06-22T00:28:14;7.97;;;5.03;;
16426;SDS011;8322;-33.900;151.170;2023-06-22T00:30:44;11.27;;;4.80;;
16426;SDS011;8322;-33.900;151.170;2023-06-22T00:33:13;10.55;;;4.63;;
16426;SDS011;8322;-33.900;151.170;2023-06-22T00:35:43;11.48;;;5.30;;
16426;SDS011;8322;-33.900;151.170;2023-06-22T00:38:12;5.28;;;4.38;;
16426;SDS011;8322;-33.900;151.170;2023-06-22T00:40:42;8.02;;;4.60;;
16426;SDS011;8322;-33.900;151.170;2023-06-22T00:43:11;10.02;;;5.05;;
16426;SDS011;8322;-33.900;151.170;2023-06-22T00:45:43;8.38;;;4.50;;
16426;SDS011;8322;-33.900;151.170;2023-06-22T00:48:12;10.93;;;4.80;;
16426;SDS011;8322;-33.900;151.170;2023-06-22T00:50:43;7.95;;;4.55;;
16426;SDS011;8322;-33.900;151.170;2023-06-22T00:53:14;10.88;;;4.57;;
16426;SDS011;8322;-33.900;151.170;2023-06-22T00:55:44;9.77;;;4.95;;
16426;SDS011;8322;-33.900;151.170;2023-06-22T00:58:17;8.05;;;4.60;;
16426;SDS011;8322;-33.900;151.170;2023-06-22T01:00:49;12.88;;;5.25;;
16426;SDS011;8322;-33.900;151.170;2023-06-22T01:03:18;8.00;;;4.32;;
16426;SDS011;8322;-33.900;151.170;2023-06-22T01:05:48;10.07;;;3.78;;
16426;SDS011;8322;-33.900;151.170;2023-06-22T01:08:25;8.07;;;4.07;;
16426;SDS011;8322;-33.900;151.170;2023-06-22T01:11:00;9.20;;;4.10;;
16426;SDS011;8322;-33.900;151.170;2023-06-22T01:13:32;8.70;;;4.10;;
16426;SDS011;8322;-33.900;151.170;2023-06-22T01:16:07;9.10;;;4.57;;
16426;SDS011;8322;-33.900;151.170;2023-06-22T01:18:39;7.80;;;4.40;;
16426;SDS011;8322;-33.900;151.170;2023-06-22T01:21:10;7.88;;;4.38;;
16426;SDS011;8322;-33.900;151.170;2023-06-22T01:23:45;11.43;;;4.80;;
16426;SDS011;8322;-33.900;151.170;2023-06-22T01:26:20;11.60;;;4.57;;
16426;SDS011;8322;-33.900;151.170;2023-06-22T01:28:55;6.35;;;4.78;;
16426;SDS011;8322;-33.900;151.170;2023-06-22T01:31:26;5.90;;;3.63;;
16426;SDS011;8322;-33.900;151.170;2023-06-22T01:33:57;7.82;;;4.20;;
16426;SDS011;8322;-33.900;151.170;2023-06-22T01:36:27;9.55;;;4.15;;
16426;SDS011;8322;-33.900;151.170;2023-06-22T01:38:57;8.77;;;4.53;;
16426;SDS011;8322;-33.900;151.170;2023-06-22T01:41:28;10.98;;;4.13;;
16426;SDS011;8322;-33.900;151.170;2023-06-22T01:43:59;5.90;;;4.00;;
16426;SDS011;8322;-33.900;151.170;2023-06-22T01:46:29;5.05;;;3.75;;
16426;SDS011;8322;-33.900;151.170;2023-06-22T01:48:59;6.93;;;3.83;;
16426;SDS011;8322;-33.900;151.170;2023-06-22T01:51:29;8.10;;;3.78;;
16426;SDS011;8322;-33.900;151.170;2023-06-22T01:53:58;10.75;;;4.05;;
16426;SDS011;8322;-33.900;151.170;2023-06-22T01:56:28;8.50;;;3.80;;
16426;SDS011;8322;-33.900;151.170;2023-06-22T01:59:01;6.03;;;3.10;;
16426;SDS011;8322;-33.900;151.170;2023-06-22T02:01:36;6.88;;;3.47;;
16426;SDS011;8322;-33.900;151.170;2023-06-22T02:04:11;4.97;;;2.65;;
16426;SDS011;8322;-33.900;151.170;2023-06-22T02:06:42;4.82;;;2.80;;
16426;SDS011;8322;-33.900;151.170;2023-06-22T02:09:12;3.85;;;2.58;;
16426;SDS011;8322;-33.900;151.170;2023-06-22T02:11:44;7.22;;;3.47;;
16426;SDS011;8322;-33.900;151.170;2023-06-22T02:14:15;7.30;;;3.65;;
16426;SDS011;8322;-33.900;151.170;2023-06-22T02:16:45;4.38;;;2.58;;
16426;SDS011;8322;-33.900;151.170;2023-06-22T02:19:15;5.82;;;2.90;;
16426;SDS011;8322;-33.900;151.170;2023-06-22T02:21:44;4.95;;;2.67;;
16426;SDS011;8322;-33.900;151.170;2023-06-22T02:24:14;6.00;;;2.88;;
16426;SDS011;8322;-33.900;151.170;2023-06-22T02:26:43;5.93;;;2.80;;
16426;SDS011;8322;-33.900;151.170;2023-06-22T02:29:13;6.60;;;2.80;;
16426;SDS011;8322;-33.900;151.170;2023-06-22T02:31:44;9.05;;;3.95;;
16426;SDS011;8322;-33.900;151.170;2023-06-22T02:34:14;8.80;;;3.15;;
16426;SDS011;8322;-33.900;151.170;2023-06-22T02:36:46;7.50;;;4.00;;
16426;SDS011;8322;-33.900;151.170;2023-06-22T02:39:21;8.43;;;3.15;;
16426;SDS011;8322;-33.900;151.170;2023-06-22T02:41:51;5.70;;;2.97;;
16426;SDS011;8322;-33.900;151.170;2023-06-22T02:44:20;5.70;;;3.10;;
16426;SDS011;8322;-33.900;151.170;2023-06-22T02:46:52;8.13;;;4.10;;
16426;SDS011;8322;-33.900;151.170;2023-06-22T02:49:22;6.38;;;3.90;;
16426;SDS011;8322;-33.900;151.170;2023-06-22T02:51:51;8.00;;;3.40;;
16426;SDS011;8322;-33.900;151.170;2023-06-22T02:54:21;7.28;;;2.97;;
16426;SDS011;8322;-33.900;151.170;2023-06-22T02:56:50;8.90;;;3.30;;
16426;SDS011;8322;-33.900;151.170;2023-06-22T02:59:20;5.88;;;3.10;;
16426;SDS011;8322;-33.900;151.170;2023-06-22T03:01:51;8.52;;;4.80;;
16426;SDS011;8322;-33.900;151.170;2023-06-22T03:04:21;4.95;;;3.08;;
16426;SDS011;8322;-33.900;151.170;2023-06-22T03:06:51;4.65;;;2.47;;
16426;SDS011;8322;-33.900;151.170;2023-06-22T03:09:20;4.28;;;2.65;;
16426;SDS011;8322;-33.900;151.170;2023-06-22T03:11:50;9.05;;;2.78;;
16426;SDS011;8322;-33.900;151.170;2023-06-22T03:14:19;3.97;;;2.35;;
16426;SDS011;8322;-33.900;151.170;2023-06-22T03:16:49;4.93;;;2.90;;
16426;SDS011;8322;-33.900;151.170;2023-06-22T03:19:20;9.02;;;3.75;;
16426;SDS011;8322;-33.900;151.170;2023-06-22T03:21:49;4.88;;;3.20;;
16426;SDS011;8322;-33.900;151.170;2023-06-22T03:24:19;7.85;;;3.47;;
16426;SDS011;8322;-33.900;151.170;2023-06-22T03:26:48;5.13;;;2.67;;
16426;SDS011;8322;-33.900;151.170;2023-06-22T03:29:18;5.30;;;2.67;;
16426;SDS011;8322;-33.900;151.170;2023-06-22T03:31:47;5.85;;;3.13;;
16426;SDS011;8322;-33.900;151.170;2023-06-22T03:34:17;6.30;;;2.78;;
16426;SDS011;8322;-33.900;151.170;2023-06-22T03:36:48;8.32;;;2.80;;
16426;SDS011;8322;-33.900;151.170;2023-06-22T03:39:18;4.38;;;2.40;;
16426;SDS011;8322;-33.900;151.170;2023-06-22T03:41:47;5.90;;;2.72;;
16426;SDS011;8322;-33.900;151.170;2023-06-22T03:44:17;7.32;;;2.58;;
16426;SDS011;8322;-33.900;151.170;2023-06-22T03:46:46;4.57;;;3.08;;
16426;SDS011;8322;-33.900;151.170;2023-06-22T03:49:16;5.50;;;2.70;;
16426;SDS011;8322;-33.900;151.170;2023-06-22T03:51:45;5.68;;;2.60;;
16426;SDS011;8322;-33.900;151.170;2023-06-22T03:54:16;5.20;;;2.80;;
16426;SDS011;8322;-33.900;151.170;2023-06-22T03:56:46;5.25;;;2.85;;
16426;SDS011;8322;-33.900;151.170;2023-06-22T03:59:15;4.55;;;2.55;;
16426;SDS011;8322;-33.900;151.170;2023-06-22T04:01:45;7.78;;;3.28;;
16426;SDS011;8322;-33.900;151.170;2023-06-22T04:04:14;5.00;;;2.30;;
16426;SDS011;8322;-33.900;151.170;2023-06-22T04:06:44;5.82;;;2.47;;
16426;SDS011;8322;-33.900;151.170;2023-06-22T04:09:13;8.68;;;2.97;;
16426;SDS011;8322;-33.900;151.170;2023-06-22T04:11:44;5.95;;;2.85;;
16426;SDS011;8322;-33.900;151.170;2023-06-22T04:14:14;6.07;;;2.88;;
16426;SDS011;8322;-33.900;151.170;2023-06-22T04:16:43;7.15;;;2.70;;
16426;SDS011;8322;-33.900;151.170;2023-06-22T04:19:13;4.60;;;2.65;;
16426;SDS011;8322;-33.900;151.170;2023-06-22T04:21:44;5.88;;;2.72;;
16426;SDS011;8322;-33.900;151.170;2023-06-22T04:24:14;6.55;;;2.97;;
16426;SDS011;8322;-33.900;151.170;2023-06-22T04:26:45;6.80;;;3.17;;
16426;SDS011;8322;-33.900;151.170;2023-06-22T04:29:19;5.80;;;2.70;;
16426;SDS011;8322;-33.900;151.170;2023-06-22T04:31:54;9.00;;;3.05;;
16426;SDS011;8322;-33.900;151.170;2023-06-22T04:34:24;10.93;;;3.90;;
16426;SDS011;8322;-33.900;151.170;2023-06-22T04:36:54;8.38;;;3.80;;
16426;SDS011;8322;-33.900;151.170;2023-06-22T04:39:24;8.30;;;3.85;;
16426;SDS011;8322;-33.900;151.170;2023-06-22T04:41:55;8.27;;;3.08;;
16426;SDS011;8322;-33.900;151.170;2023-06-22T04:44:26;6.70;;;3.47;;
16426;SDS011;8322;-33.900;151.170;2023-06-22T04:46:56;8.43;;;3.70;;
16426;SDS011;8322;-33.900;151.170;2023-06-22T04:49:29;11.75;;;4.80;;
16426;SDS011;8322;-33.900;151.170;2023-06-22T04:52:03;7.25;;;3.05;;
16426;SDS011;8322;-33.900;151.170;2023-06-22T04:54:33;5.97;;;2.70;;
16426;SDS011;8322;-33.900;151.170;2023-06-22T04:57:05;6.30;;;3.17;;
16426;SDS011;8322;-33.900;151.170;2023-06-22T04:59:36;11.05;;;3.72;;
16426;SDS011;8322;-33.900;151.170;2023-06-22T05:02:07;8.55;;;4.47;;
16426;SDS011;8322;-33.900;151.170;2023-06-22T05:04:40;5.38;;;2.83;;
16426;SDS011;8322;-33.900;151.170;2023-06-22T05:07:09;8.43;;;3.22;;
16426;SDS011;8322;-33.900;151.170;2023-06-22T05:09:38;5.68;;;2.28;;
16426;SDS011;8322;-33.900;151.170;2023-06-22T05:12:10;4.47;;;2.08;;
16426;SDS011;8322;-33.900;151.170;2023-06-22T05:14:39;6.47;;;2.75;;
16426;SDS011;8322;-33.900;151.170;2023-06-22T05:17:09;6.35;;;2.90;;
16426;SDS011;8322;-33.900;151.170;2023-06-22T05:19:39;4.65;;;2.40;;
16426;SDS011;8322;-33.900;151.170;2023-06-22T05:22:14;6.32;;;2.70;;
16426;SDS011;8322;-33.900;151.170;2023-06-22T05:24:44;6.53;;;2.65;;
16426;SDS011;8322;-33.900;151.170;2023-06-22T05:27:15;8.30;;;2.40;;
16426;SDS011;8322;-33.900;151.170;2023-06-22T05:29:44;7.43;;;3.05;;
16426;SDS011;8322;-33.900;151.170;2023-06-22T05:32:14;4.03;;;2.50;;
16426;SDS011;8322;-33.900;151.170;2023-06-22T05:34:44;8.52;;;2.70;;
16426;SDS011;8322;-33.900;151.170;2023-06-22T05:37:14;4.75;;;2.20;;
16426;SDS011;8322;-33.900;151.170;2023-06-22T05:39:43;8.55;;;2.22;;
16426;SDS011;8322;-33.900;151.170;2023-06-22T05:42:13;8.23;;;3.13;;
16426;SDS011;8322;-33.900;151.170;2023-06-22T05:44:44;11.48;;;5.38;;
16426;SDS011;8322;-33.900;151.170;2023-06-22T05:47:13;11.43;;;6.45;;
16426;SDS011;8322;-33.900;151.170;2023-06-22T05:49:43;14.55;;;6.85;;
16426;SDS011;8322;-33.900;151.170;2023-06-22T05:52:13;9.75;;;4.88;;
16426;SDS011;8322;-33.900;151.170;2023-06-22T05:54:42;7.63;;;3.47;;
16426;SDS011;8322;-33.900;151.170;2023-06-22T05:57:12;4.75;;;2.95;;
16426;SDS011;8322;-33.900;151.170;2023-06-22T05:59:43;9.65;;;3.38;;
16426;SDS011;8322;-33.900;151.170;2023-06-22T06:02:12;7.47;;;3.47;;
16426;SDS011;8322;-33.900;151.170;2023-06-22T06:04:42;10.07;;;3.20;;
16426;SDS011;8322;-33.900;151.170;2023-06-22T06:07:11;5.82;;;3.08;;
16426;SDS011;8322;-33.900;151.170;2023-06-22T06:09:41;15.05;;;9.73;;
16426;SDS011;8322;-33.900;151.170;2023-06-22T06:12:10;15.05;;;8.90;;
16426;SDS011;8322;-33.900;151.170;2023-06-22T06:14:40;12.02;;;5.93;;
16426;SDS011;8322;-33.900;151.170;2023-06-22T06:17:11;12.52;;;4.80;;
16426;SDS011;8322;-33.900;151.170;2023-06-22T06:19:41;8.75;;;4.18;;
16426;SDS011;8322;-33.900;151.170;2023-06-22T06:22:10;9.35;;;4.13;;
16426;SDS011;8322;-33.900;151.170;2023-06-22T06:24:40;9.40;;;4.30;;
16426;SDS011;8322;-33.900;151.170;2023-06-22T06:27:09;9.05;;;4.40;;
16426;SDS011;8322;-33.900;151.170;2023-06-22T06:29:39;13.32;;;4.80;;
16426;SDS011;8322;-33.900;151.170;2023-06-22T06:32:09;13.88;;;5.50;;
16426;SDS011;8322;-33.900;151.170;2023-06-22T06:34:40;9.73;;;4.78;;
16426;SDS011;8322;-33.900;151.170;2023-06-22T06:37:09;8.77;;;5.50;;
16426;SDS011;8322;-33.900;151.170;2023-06-22T06:39:39;11.48;;;6.65;;
16426;SDS011;8322;-33.900;151.170;2023-06-22T06:42:08;19.50;;;12.32;;
16426;SDS011;8322;-33.900;151.170;2023-06-22T06:44:38;19.60;;;13.05;;
16426;SDS011;8322;-33.900;151.170;2023-06-22T06:47:07;24.40;;;15.68;;
16426;SDS011;8322;-33.900;151.170;2023-06-22T06:49:37;19.73;;;13.10;;
16426;SDS011;8322;-33.900;151.170;2023-06-22T06:52:08;15.93;;;10.55;;
16426;SDS011;8322;-33.900;151.170;2023-06-22T06:54:38;18.30;;;11.68;;
16426;SDS011;8322;-33.900;151.170;2023-06-22T06:57:07;16.38;;;11.32;;
16426;SDS011;8322;-33.900;151.170;2023-06-22T06:59:39;17.67;;;10.77;;
16426;SDS011;8322;-33.900;151.170;2023-06-22T07:02:11;14.18;;;8.60;;
16426;SDS011;8322;-33.900;151.170;2023-06-22T07:04:41;18.05;;;8.68;;
16426;SDS011;8322;-33.900;151.170;2023-06-22T07:07:12;13.30;;;7.28;;
16426;SDS011;8322;-33.900;151.170;2023-06-22T07:09:41;13.40;;;7.05;;
16426;SDS011;8322;-33.900;151.170;2023-06-22T07:12:11;18.88;;;11.30;;
16426;SDS011;8322;-33.900;151.170;2023-06-22T07:14:40;20.65;;;12.27;;
16426;SDS011;8322;-33.900;151.170;2023-06-22T07:17:10;14.98;;;9.20;;
16426;SDS011;8322;-33.900;151.170;2023-06-22T07:19:39;15.43;;;7.85;;
16426;SDS011;8322;-33.900;151.170;2023-06-22T07:22:09;10.95;;;6.88;;
16426;SDS011;8322;-33.900;151.170;2023-06-22T07:24:40;13.05;;;6.82;;
16426;SDS011;8322;-33.900;151.170;2023-06-22T07:27:09;13.38;;;7.13;;
16426;SDS011;8322;-33.900;151.170;2023-06-22T07:29:39;14.65;;;7.30;;
16426;SDS011;8322;-33.900;151.170;2023-06-22T07:32:09;12.27;;;7.55;;
16426;SDS011;8322;-33.900;151.170;2023-06-22T07:34:38;15.40;;;7.10;;
16426;SDS011;8322;-33.900;151.170;2023-06-22T07:37:08;13.80;;;7.13;;
16426;SDS011;8322;-33.900;151.170;2023-06-22T07:39:38;13.45;;;7.38;;
16426;SDS011;8322;-33.900;151.170;2023-06-22T07:42:10;11.15;;;7.15;;
16426;SDS011;8322;-33.900;151.170;2023-06-22T07:44:39;16.05;;;7.60;;
16426;SDS011;8322;-33.900;151.170;2023-06-22T07:47:09;14.25;;;7.53;;
16426;SDS011;8322;-33.900;151.170;2023-06-22T07:49:38;13.90;;;7.75;;
16426;SDS011;8322;-33.900;151.170;2023-06-22T07:52:08;13.18;;;7.80;;
16426;SDS011;8322;-33.900;151.170;2023-06-22T07:54:37;17.15;;;8.43;;
16426;SDS011;8322;-33.900;151.170;2023-06-22T07:57:07;16.48;;;10.77;;
16426;SDS011;8322;-33.900;151.170;2023-06-22T07:59:38;20.23;;;11.38;;
16426;SDS011;8322;-33.900;151.170;2023-06-22T08:02:08;18.27;;;10.52;;
16426;SDS011;8322;-33.900;151.170;2023-06-22T08:04:37;15.43;;;9.43;;
16426;SDS011;8322;-33.900;151.170;2023-06-22T08:07:07;16.15;;;9.15;;
16426;SDS011;8322;-33.900;151.170;2023-06-22T08:09:36;16.40;;;8.88;;
16426;SDS011;8322;-33.900;151.170;2023-06-22T08:12:07;16.73;;;8.43;;
16426;SDS011;8322;-33.900;151.170;2023-06-22T08:14:38;17.30;;;8.77;;
16426;SDS011;8322;-33.900;151.170;2023-06-22T08:17:08;15.93;;;8.63;;
16426;SDS011;8322;-33.900;151.170;2023-06-22T08:19:37;25.45;;;14.02;;
16426;SDS011;8322;-33.900;151.170;2023-06-22T08:22:07;35.78;;;20.13;;
16426;SDS011;8322;-33.900;151.170;2023-06-22T08:24:36;24.38;;;16.98;;
16426;SDS011;8322;-33.900;151.170;2023-06-22T08:27:07;23.70;;;15.38;;
16426;SDS011;8322;-33.900;151.170;2023-06-22T08:29:39;22.05;;;13.27;;
16426;SDS011;8322;-33.900;151.170;2023-06-22T08:32:09;26.17;;;17.05;;
16426;SDS011;8322;-33.900;151.170;2023-06-22T08:34:38;19.45;;;13.90;;
16426;SDS011;8322;-33.900;151.170;2023-06-22T08:37:09;24.85;;;17.75;;
16426;SDS011;8322;-33.900;151.170;2023-06-22T08:39:40;25.73;;;20.90;;
16426;SDS011;8322;-33.900;151.170;2023-06-22T08:42:10;23.02;;;15.43;;
16426;SDS011;8322;-33.900;151.170;2023-06-22T08:44:41;32.42;;;20.65;;
16426;SDS011;8322;-33.900;151.170;2023-06-22T08:47:11;31.58;;;19.02;;
16426;SDS011;8322;-33.900;151.170;2023-06-22T08:49:40;22.40;;;14.70;;
16426;SDS011;8322;-33.900;151.170;2023-06-22T08:52:09;19.40;;;13.02;;
16426;SDS011;8322;-33.900;151.170;2023-06-22T08:54:39;21.33;;;12.55;;
16426;SDS011;8322;-33.900;151.170;2023-06-22T08:57:08;24.52;;;12.75;;
16426;SDS011;8322;-33.900;151.170;2023-06-22T08:59:38;25.42;;;14.13;;
16426;SDS011;8322;-33.900;151.170;2023-06-22T09:02:09;22.02;;;13.40;;
16426;SDS011;8322;-33.900;151.170;2023-06-22T09:04:39;21.50;;;11.35;;
16426;SDS011;8322;-33.900;151.170;2023-06-22T09:07:08;17.25;;;10.38;;
16426;SDS011;8322;-33.900;151.170;2023-06-22T09:09:38;17.08;;;8.50;;
16426;SDS011;8322;-33.900;151.170;2023-06-22T09:12:07;15.77;;;8.38;;
16426;SDS011;8322;-33.900;151.170;2023-06-22T09:14:37;13.75;;;7.55;;
16426;SDS011;8322;-33.900;151.170;2023-06-22T09:17:07;15.50;;;8.63;;
16426;SDS011;8322;-33.900;151.170;2023-06-22T09:19:41;18.35;;;8.60;;
16426;SDS011;8322;-33.900;151.170;2023-06-22T09:22:10;16.67;;;9.13;;
16426;SDS011;8322;-33.900;151.170;2023-06-22T09:24:40;14.55;;;8.50;;
16426;SDS011;8322;-33.900;151.170;2023-06-22T09:27:09;16.05;;;8.98;;
16426;SDS011;8322;-33.900;151.170;2023-06-22T09:29:39;12.98;;;8.15;;
16426;SDS011;8322;-33.900;151.170;2023-06-22T09:32:08;17.90;;;8.63;;
16426;SDS011;8322;-33.900;151.170;2023-06-22T09:34:38;14.68;;;8.30;;
16426;SDS011;8322;-33.900;151.170;2023-06-22T09:37:09;16.30;;;9.18;;
16426;SDS011;8322;-33.900;151.170;2023-06-22T09:39:39;13.77;;;9.20;;
16426;SDS011;8322;-33.900;151.170;2023-06-22T09:42:08;16.75;;;9.07;;
16426;SDS011;8322;-33.900;151.170;2023-06-22T09:44:39;16.33;;;9.55;;
16426;SDS011;8322;-33.900;151.170;2023-06-22T09:47:08;15.38;;;9.13;;
16426;SDS011;8322;-33.900;151.170;2023-06-22T09:49:38;21.25;;;9.48;;
16426;SDS011;8322;-33.900;151.170;2023-06-22T09:52:09;16.60;;;9.38;;
16426;SDS011;8322;-33.900;151.170;2023-06-22T09:54:39;14.98;;;9.95;;
16426;SDS011;8322;-33.900;151.170;2023-06-22T09:57:08;21.13;;;10.68;;
16426;SDS011;8322;-33.900;151.170;2023-06-22T09:59:38;20.35;;;11.25;;
16426;SDS011;8322;-33.900;151.170;2023-06-22T10:02:07;19.15;;;10.38;;
16426;SDS011;8322;-33.900;151.170;2023-06-22T10:04:37;18.05;;;11.23;;
16426;SDS011;8322;-33.900;151.170;2023-06-22T10:07:07;22.48;;;11.93;;
16426;SDS011;8322;-33.900;151.170;2023-06-22T10:09:38;19.08;;;10.70;;
16426;SDS011;8322;-33.900;151.170;2023-06-22T10:12:08;18.15;;;9.63;;
16426;SDS011;8322;-33.900;151.170;2023-06-22T10:14:37;17.30;;;9.18;;
16426;SDS011;8322;-33.900;151.170;2023-06-22T10:17:07;20.23;;;9.38;;
16426;SDS011;8322;-33.900;151.170;2023-06-22T10:19:36;17.00;;;8.95;;
16426;SDS011;8322;-33.900;151.170;2023-06-22T10:22:07;13.45;;;8.77;;
16426;SDS011;8322;-33.900;151.170;2023-06-22T10:24:39;16.38;;;9.30;;
16426;SDS011;8322;-33.900;151.170;2023-06-22T10:27:10;16.90;;;9.57;;
16426;SDS011;8322;-33.900;151.170;2023-06-22T10:29:40;17.20;;;9.30;;
16426;SDS011;8322;-33.900;151.170;2023-06-22T10:32:10;14.77;;;9.32;;
16426;SDS011;8322;-33.900;151.170;2023-06-22T10:34:39;16.40;;;9.45;;
16426;SDS011;8322;-33.900;151.170;2023-06-22T10:37:09;17.92;;;9.40;;
16426;SDS011;8322;-33.900;151.170;2023-06-22T10:39:40;15.25;;;9.35;;
16426;SDS011;8322;-33.900;151.170;2023-06-22T10:42:10;16.45;;;9.23;;
16426;SDS011;8322;-33.900;151.170;2023-06-22T10:44:39;17.48;;;9.55;;
16426;SDS011;8322;-33.900;151.170;2023-06-22T10:47:10;14.90;;;8.75;;
16426;SDS011;8322;-33.900;151.170;2023-06-22T10:49:39;15.43;;;8.63;;
16426;SDS011;8322;-33.900;151.170;2023-06-22T10:52:09;13.70;;;8.68;;
16426;SDS011;8322;-33.900;151.170;2023-06-22T10:54:40;18.30;;;9.52;;
16426;SDS011;8322;-33.900;151.170;2023-06-22T10:57:10;16.17;;;8.90;;
16426;SDS011;8322;-33.900;151.170;2023-06-22T10:59:40;18.52;;;9.95;;
16426;SDS011;8322;-33.900;151.170;2023-06-22T11:02:09;16.63;;;9.45;;
16426;SDS011;8322;-33.900;151.170;2023-06-22T11:04:39;17.88;;;9.10;;
16426;SDS011;8322;-33.900;151.170;2023-06-22T11:07:09;15.57;;;9.55;;
16426;SDS011;8322;-33.900;151.170;2023-06-22T11:09:40;17.65;;;9.50;;
16426;SDS011;8322;-33.900;151.170;2023-06-22T11:12:10;16.10;;;9.80;;
16426;SDS011;8322;-33.900;151.170;2023-06-22T11:14:39;13.77;;;9.40;;
16426;SDS011;8322;-33.900;151.170;2023-06-22T11:17:09;13.68;;;9.35;;
16426;SDS011;8322;-33.900;151.170;2023-06-22T11:19:38;15.00;;;9.05;;
16426;SDS011;8322;-33.900;151.170;2023-06-22T11:22:08;11.23;;;8.90;;
16426;SDS011;8322;-33.900;151.170;2023-06-22T11:24:37;12.90;;;9.20;;
16426;SDS011;8322;-33.900;151.170;2023-06-22T11:27:09;18.50;;;9.82;;
16426;SDS011;8322;-33.900;151.170;2023-06-22T11:29:38;14.55;;;10.07;;
16426;SDS011;8322;-33.900;151.170;2023-06-22T11:32:08;14.43;;;9.35;;
16426;SDS011;8322;-33.900;151.170;2023-06-22T11:34:37;15.60;;;10.35;;
16426;SDS011;8322;-33.900;151.170;2023-06-22T11:37:06;17.30;;;10.70;;
16426;SDS011;8322;-33.900;151.170;2023-06-22T11:39:36;16.08;;;10.18;;
16426;SDS011;8322;-33.900;151.170;2023-06-22T11:42:06;15.10;;;9.70;;
16426;SDS011;8322;-33.900;151.170;2023-06-22T11:44:37;15.73;;;10.13;;
16426;SDS011;8322;-33.900;151.170;2023-06-22T11:47:06;16.45;;;10.23;;
16426;SDS011;8322;-33.900;151.170;2023-06-22T11:49:36;14.73;;;9.85;;
16426;SDS011;8322;-33.900;151.170;2023-06-22T11:52:06;16.88;;;9.50;;
16426;SDS011;8322;-33.900;151.170;2023-06-22T11:54:35;15.15;;;9.70;;
16426;SDS011;8322;-33.900;151.170;2023-06-22T11:57:05;16.75;;;9.52;;
16426;SDS011;8322;-33.900;151.170;2023-06-22T11:59:39;16.20;;;9.98;;
16426;SDS011;8322;-33.900;151.170;2023-06-22T12:02:08;12.07;;;8.45;;
16426;SDS011;8322;-33.900;151.170;2023-06-22T12:04:38;14.70;;;9.18;;
16426;SDS011;8322;-33.900;151.170;2023-06-22T12:07:07;15.63;;;9.73;;
16426;SDS011;8322;-33.900;151.170;2023-06-22T12:09:37;12.90;;;8.90;;
16426;SDS011;8322;-33.900;151.170;2023-06-22T12:12:06;11.95;;;9.15;;
16426;SDS011;8322;-33.900;151.170;2023-06-22T12:14:36;15.20;;;8.75;;
16426;SDS011;8322;-33.900;151.170;2023-06-22T12:17:07;14.18;;;8.43;;
16426;SDS011;8322;-33.900;151.170;2023-06-22T12:19:37;12.43;;;9.55;;
16426;SDS011;8322;-33.900;151.170;2023-06-22T12:22:06;14.60;;;9.27;;
16426;SDS011;8322;-33.900;151.170;2023-06-22T12:24:36;13.10;;;9.07;;
16426;SDS011;8322;-33.900;151.170;2023-06-22T12:27:05;14.27;;;9.35;;
16426;SDS011;8322;-33.900;151.170;2023-06-22T12:29:36;11.50;;;8.60;;
16426;SDS011;8322;-33.900;151.170;2023-06-22T12:32:07;14.02;;;8.82;;
16426;SDS011;8322;-33.900;151.170;2023-06-22T12:34:38;13.50;;;8.60;;
16426;SDS011;8322;-33.900;151.170;2023-06-22T12:37:08;14.02;;;9.25;;
16426;SDS011;8322;-33.900;151.170;2023-06-22T12:39:39;15.52;;;8.95;;
16426;SDS011;8322;-33.900;151.170;2023-06-22T12:42:09;11.90;;;8.32;;
16426;SDS011;8322;-33.900;151.170;2023-06-22T12:44:39;15.00;;;9.45;;
16426;SDS011;8322;-33.900;151.170;2023-06-22T12:47:10;15.57;;;9.68;;
16426;SDS011;8322;-33.900;151.170;2023-06-22T12:49:40;13.70;;;8.90;;
16426;SDS011;8322;-33.900;151.170;2023-06-22T12:52:09;16.58;;;9.55;;
16426;SDS011;8322;-33.900;151.170;2023-06-22T12:54:39;15.25;;;9.27;;
16426;SDS011;8322;-33.900;151.170;2023-06-22T12:57:08;16.58;;;9.77;;
16426;SDS011;8322;-33.900;151.170;2023-06-22T12:59:38;15.43;;;9.25;;
16426;SDS011;8322;-33.900;151.170;2023-06-22T13:02:07;15.02;;;9.73;;
16426;SDS011;8322;-33.900;151.170;2023-06-22T13:04:38;11.40;;;9.18;;
16426;SDS011;8322;-33.900;151.170;2023-06-22T13:07:09;14.20;;;9.32;;
16426;SDS011;8322;-33.900;151.170;2023-06-22T13:09:38;14.52;;;9.70;;
16426;SDS011;8322;-33.900;151.170;2023-06-22T13:12:08;15.05;;;10.10;;
16426;SDS011;8322;-33.900;151.170;2023-06-22T13:14:37;18.60;;;10.00;;
16426;SDS011;8322;-33.900;151.170;2023-06-22T13:17:07;15.15;;;9.68;;
16426;SDS011;8322;-33.900;151.170;2023-06-22T13:19:38;16.02;;;10.07;;
16426;SDS011;8322;-33.900;151.170;2023-06-22T13:22:09;14.18;;;9.43;;
16426;SDS011;8322;-33.900;151.170;2023-06-22T13:24:54;13.77;;;10.02;;
16426;SDS011;8322;-33.900;151.170;2023-06-22T13:27:24;14.23;;;9.48;;
16426;SDS011;8322;-33.900;151.170;2023-06-22T13:29:53;15.77;;;9.38;;
16426;SDS011;8322;-33.900;151.170;2023-06-22T13:32:23;12.05;;;9.00;;
16426;SDS011;8322;-33.900;151.170;2023-06-22T13:34:54;15.27;;;10.30;;
16426;SDS011;8322;-33.900;151.170;2023-06-22T13:37:24;12.60;;;9.00;;
16426;SDS011;8322;-33.900;151.170;2023-06-22T13:39:56;14.10;;;9.23;;
16426;SDS011;8322;-33.900;151.170;2023-06-22T13:42:26;19.00;;;10.68;;
16426;SDS011;8322;-33.900;151.170;2023-06-22T13:44:55;16.50;;;10.57;;
16426;SDS011;8322;-33.900;151.170;2023-06-22T13:47:25;15.98;;;9.80;;
16426;SDS011;8322;-33.900;151.170;2023-06-22T13:49:56;13.52;;;8.98;;
16426;SDS011;8322;-33.900;151.170;2023-06-22T13:52:26;12.15;;;8.50;;
16426;SDS011;8322;-33.900;151.170;2023-06-22T13:54:55;13.02;;;8.45;;
16426;SDS011;8322;-33.900;151.170;2023-06-22T13:57:25;10.95;;;8.00;;
16426;SDS011;8322;-33.900;151.170;2023-06-22T13:59:54;10.57;;;7.93;;
16426;SDS011;8322;-33.900;151.170;2023-06-22T14:02:23;11.15;;;7.32;;
16426;SDS011;8322;-33.900;151.170;2023-06-22T14:04:53;9.45;;;7.38;;
16426;SDS011;8322;-33.900;151.170;2023-06-22T14:07:25;12.05;;;7.85;;
16426;SDS011;8322;-33.900;151.170;2023-06-22T14:09:54;9.82;;;7.35;;
16426;SDS011;8322;-33.900;151.170;2023-06-22T14:12:24;8.82;;;6.15;;
16426;SDS011;8322;-33.900;151.170;2023-06-22T14:14:54;7.20;;;5.90;;
16426;SDS011;8322;-33.900;151.170;2023-06-22T14:17:23;8.23;;;5.40;;
16426;SDS011;8322;-33.900;151.170;2023-06-22T14:19:53;6.97;;;4.60;;
16426;SDS011;8322;-33.900;151.170;2023-06-22T14:22:24;7.20;;;4.55;;
16426;SDS011;8322;-33.900;151.170;2023-06-22T14:24:55;8.55;;;5.10;;
16426;SDS011;8322;-33.900;151.170;2023-06-22T14:27:25;7.85;;;4.75;;